Time;durP1;ratioP1;P1;durP2;ratioP2;P2;SDS_P1;SDS_P2;PMS_P1;PMS_P2;Temp;Humidity;BMP_temperature;BMP_pressure;BME280_temperature;BME280_humidity;BME280_pressure;Samples;Min_cycle;Max_cycle;Signal;HPM_P1;HPM_P2
2023/07/05 00:01:25;;;;;;;2.85;2.00;;;;;;;;;;5059193;28;20028;-85
2023/07/05 00:03:50;;;;;;;3.05;2.47;;;;;;;;;;5065224;28;20418;-85
2023/07/05 00:06:16;;;;;;;2.65;2.42;;;;;;;;;;5060563;28;20046;-85
2023/07/05 00:08:41;;;;;;;3.45;1.88;;;;;;;;;;5075142;28;20016;-85
2023/07/05 00:11:08;;;;;;;3.20;2.05;;;;;;;;;;5058775;28;20055;-87
2023/07/05 00:13:35;;;;;;;3.33;2.47;;;;;;;;;;5062860;28;20040;-85
2023/07/05 00:16:00;;;;;;;2.63;2.00;;;;;;;;;;5058472;28;20119;-85
2023/07/05 00:18:27;;;;;;;3.05;1.77;;;;;;;;;;5056591;28;20433;-85
2023/07/05 00:20:58;;;;;;;2.42;1.83;;;;;;;;;;5061988;28;20043;-83
2023/07/05 00:23:23;;;;;;;4.35;2.83;;;;;;;;;;5057410;28;20048;-83
2023/07/05 00:25:49;;;;;;;4.40;1.98;;;;;;;;;;5060081;28;20055;-84
2023/07/05 00:28:15;;;;;;;6.15;2.42;;;;;;;;;;5058804;28;20453;-83
2023/07/05 00:30:45;;;;;;;3.35;2.00;;;;;;;;;;5058461;28;20028;-83
2023/07/05 00:33:11;;;;;;;2.70;1.88;;;;;;;;;;5058770;28;20032;-85
2023/07/05 00:35:36;;;;;;;1.80;1.50;;;;;;;;;;5060696;28;20021;-81
2023/07/05 00:38:02;;;;;;;2.88;1.83;;;;;;;;;;5059954;28;20021;-82
2023/07/05 00:40:27;;;;;;;3.03;2.17;;;;;;;;;;5053273;28;20037;-83
2023/07/05 00:42:53;;;;;;;4.95;2.50;;;;;;;;;;5064553;28;20035;-83
2023/07/05 00:45:18;;;;;;;2.95;2.05;;;;;;;;;;5061727;28;20042;-84
2023/07/05 00:47:46;;;;;;;5.07;3.17;;;;;;;;;;5063259;28;20079;-84
2023/07/05 00:50:24;;;;;;;5.05;2.55;;;;;;;;;;5068973;28;20029;-85
2023/07/05 00:52:51;;;;;;;2.60;1.92;;;;;;;;;;5062023;28;20025;-84
2023/07/05 00:55:18;;;;;;;2.83;1.77;;;;;;;;;;5054144;28;20028;-84
2023/07/05 00:57:44;;;;;;;3.00;2.20;;;;;;;;;;5053731;28;20032;-86
2023/07/05 01:00:16;;;;;;;4.50;2.58;;;;;;;;;;5059837;28;20166;-85
2023/07/05 01:02:45;;;;;;;3.65;2.55;;;;;;;;;;5055152;28;20464;-84
2023/07/05 01:05:12;;;;;;;3.15;2.25;;;;;;;;;;5060476;28;20230;-83
2023/07/05 01:07:38;;;;;;;4.35;3.00;;;;;;;;;;5054539;28;20033;-81
2023/07/05 01:10:04;;;;;;;4.72;2.67;;;;;;;;;;5055359;28;20021;-81
2023/07/05 01:12:32;;;;;;;3.25;2.58;;;;;;;;;;5054324;28;20025;-81
2023/07/05 01:15:10;;;;;;;3.85;2.20;;;;;;;;;;5062296;28;20474;-82
2023/07/05 01:17:47;;;;;;;4.63;2.35;;;;;;;;;;5064174;28;20045;-83
2023/07/05 01:20:39;;;;;;;2.92;2.05;;;;;;;;;;5059095;28;20500;-82
2023/07/05 01:23:22;;;;;;;2.58;1.83;;;;;;;;;;5052177;28;20029;-81
2023/07/05 01:26:10;;;;;;;3.75;2.20;;;;;;;;;;5051742;28;20491;-81
2023/07/05 01:29:11;;;;;;;3.15;1.65;;;;;;;;;;5050898;28;20074;-82
2023/07/05 01:32:21;;;;;;;3.60;2.45;;;;;;;;;;5049873;28;20043;-82
2023/07/05 01:34:57;;;;;;;4.93;3.33;;;;;;;;;;5048011;28;20075;-82
2023/07/05 01:37:39;;;;;;;2.95;2.10;;;;;;;;;;5059436;28;20059;-86
2023/07/05 01:40:20;;;;;;;3.22;2.15;;;;;;;;;;5062451;28;20025;-85
2023/07/05 01:42:47;;;;;;;3.55;2.53;;;;;;;;;;5065257;28;20033;-82
2023/07/05 01:45:13;;;;;;;4.32;2.58;;;;;;;;;;5056321;28;20036;-84
2023/07/05 01:47:56;;;;;;;3.30;2.38;;;;;;;;;;5054215;28;20479;-86
2023/07/05 01:50:34;;;;;;;2.72;1.67;;;;;;;;;;5055403;28;20031;-84
2023/07/05 01:53:00;;;;;;;4.32;2.08;;;;;;;;;;5062682;28;20101;-86
2023/07/05 01:55:30;;;;;;;4.00;2.60;;;;;;;;;;5055457;28;20461;-84
2023/07/05 01:58:01;;;;;;;6.05;3.00;;;;;;;;;;5058237;28;20024;-85
2023/07/05 02:00:28;;;;;;;2.10;1.67;;;;;;;;;;5063819;28;20043;-86
2023/07/05 02:03:09;;;;;;;3.10;2.20;;;;;;;;;;5056088;28;20419;-83
2023/07/05 02:05:37;;;;;;;3.25;2.03;;;;;;;;;;5063063;28;20114;-85
2023/07/05 02:08:03;;;;;;;3.83;2.58;;;;;;;;;;5058993;28;20017;-87
2023/07/05 02:10:28;;;;;;;2.92;2.17;;;;;;;;;;5057853;28;20086;-86
2023/07/05 02:12:57;;;;;;;2.75;2.00;;;;;;;;;;5057851;28;20060;-84
2023/07/05 02:15:23;;;;;;;4.45;2.55;;;;;;;;;;5068016;28;20039;-84
2023/07/05 02:17:49;;;;;;;3.95;2.72;;;;;;;;;;5064564;28;20697;-84
2023/07/05 02:20:14;;;;;;;3.70;2.60;;;;;;;;;;5060670;28;20025;-85
2023/07/05 02:22:40;;;;;;;4.40;2.33;;;;;;;;;;5060639;28;20551;-84
2023/07/05 02:25:06;;;;;;;2.35;1.63;;;;;;;;;;5054145;28;20052;-86
2023/07/05 02:27:32;;;;;;;2.40;1.75;;;;;;;;;;5058153;28;20025;-86
2023/07/05 02:29:57;;;;;;;5.10;2.38;;;;;;;;;;5053979;28;20492;-87
2023/07/05 02:32:23;;;;;;;4.70;2.67;;;;;;;;;;5057094;28;20711;-84
2023/07/05 02:34:49;;;;;;;4.82;2.35;;;;;;;;;;5064257;28;20024;-84
2023/07/05 02:37:14;;;;;;;4.63;2.92;;;;;;;;;;5055956;28;20025;-86
2023/07/05 02:39:41;;;;;;;3.17;2.53;;;;;;;;;;5059349;28;20025;-85
2023/07/05 02:42:07;;;;;;;1.98;1.77;;;;;;;;;;5055411;28;20452;-83
2023/07/05 02:44:32;;;;;;;4.68;2.67;;;;;;;;;;5060459;28;20025;-84
2023/07/05 02:46:58;;;;;;;2.92;1.92;;;;;;;;;;5062296;28;20056;-85
2023/07/05 02:49:23;;;;;;;2.13;1.90;;;;;;;;;;5059375;28;20032;-86
2023/07/05 02:51:49;;;;;;;3.95;2.47;;;;;;;;;;5055227;28;20027;-84
2023/07/05 02:54:14;;;;;;;2.97;2.05;;;;;;;;;;5059232;28;20024;-82
2023/07/05 02:56:40;;;;;;;4.47;3.38;;;;;;;;;;5058295;28;20115;-82
2023/07/05 02:59:05;;;;;;;2.80;2.33;;;;;;;;;;5052271;28;20423;-84
2023/07/05 03:01:31;;;;;;;3.72;2.38;;;;;;;;;;5055939;28;20037;-84
2023/07/05 03:03:56;;;;;;;2.58;2.05;;;;;;;;;;5061115;28;20078;-84
2023/07/05 03:06:22;;;;;;;4.28;2.83;;;;;;;;;;5062493;28;20405;-86
2023/07/05 03:08:47;;;;;;;3.83;2.63;;;;;;;;;;5059669;28;20020;-85
2023/07/05 03:11:13;;;;;;;2.40;2.20;;;;;;;;;;5057098;28;20108;-86
2023/07/05 03:13:39;;;;;;;4.90;3.00;;;;;;;;;;5058734;28;20070;-86
2023/07/05 03:16:05;;;;;;;5.07;3.05;;;;;;;;;;5062704;28;20040;-86
2023/07/05 03:18:31;;;;;;;4.22;2.10;;;;;;;;;;5063338;28;20496;-84
2023/07/05 03:20:57;;;;;;;2.92;2.65;;;;;;;;;;5054989;28;20056;-84
2023/07/05 03:23:23;;;;;;;3.35;2.70;;;;;;;;;;5055779;28;20021;-82
2023/07/05 03:25:57;;;;;;;5.72;3.35;;;;;;;;;;5058119;28;20070;-84
2023/07/05 03:28:25;;;;;;;3.10;2.20;;;;;;;;;;5062336;28;20024;-82
2023/07/05 03:31:01;;;;;;;4.13;2.80;;;;;;;;;;5053282;28;20048;-81
2023/07/05 03:33:27;;;;;;;2.75;1.77;;;;;;;;;;5066022;28;20146;-84
2023/07/05 03:35:58;;;;;;;3.50;2.25;;;;;;;;;;5057874;28;20021;-84
2023/07/05 03:38:25;;;;;;;2.97;1.73;;;;;;;;;;5061205;28;20040;-84
2023/07/05 03:41:02;;;;;;;4.18;2.42;;;;;;;;;;5055897;28;20033;-83
2023/07/05 03:43:29;;;;;;;3.40;2.40;;;;;;;;;;5063686;28;20150;-83
2023/07/05 03:45:58;;;;;;;2.08;1.67;;;;;;;;;;5059716;28;20029;-83
2023/07/05 03:48:24;;;;;;;3.13;2.10;;;;;;;;;;5051131;28;20028;-81
2023/07/05 03:50:49;;;;;;;5.22;2.05;;;;;;;;;;5059540;28;20045;-82
2023/07/05 03:53:15;;;;;;;6.78;2.85;;;;;;;;;;5063303;28;20149;-83
2023/07/05 03:55:40;;;;;;;7.05;2.63;;;;;;;;;;5061194;28;20028;-81
2023/07/05 03:58:06;;;;;;;4.53;2.00;;;;;;;;;;5063450;28;20134;-83
2023/07/05 04:00:31;;;;;;;1.83;1.55;;;;;;;;;;5066990;28;20495;-82
2023/07/05 04:02:57;;;;;;;4.15;2.67;;;;;;;;;;5055982;28;20024;-82
2023/07/05 04:05:23;;;;;;;4.25;2.15;;;;;;;;;;5058586;28;20028;-86
2023/07/05 04:07:48;;;;;;;4.18;3.05;;;;;;;;;;5064948;28;20020;-82
2023/07/05 04:10:14;;;;;;;5.50;2.53;;;;;;;;;;5056890;28;20036;-83
2023/07/05 04:12:39;;;;;;;5.32;2.03;;;;;;;;;;5049009;28;20081;-82
2023/07/05 04:15:05;;;;;;;3.45;2.35;;;;;;;;;;5060268;28;20094;-81
2023/07/05 04:17:31;;;;;;;3.10;2.30;;;;;;;;;;5057925;28;20057;-83
2023/07/05 04:19:57;;;;;;;3.63;2.70;;;;;;;;;;5059060;28;20024;-83
2023/07/05 04:22:22;;;;;;;3.53;2.47;;;;;;;;;;5064256;28;20028;-83
2023/07/05 04:24:48;;;;;;;4.35;2.88;;;;;;;;;;5059716;28;20032;-86
2023/07/05 04:27:15;;;;;;;4.82;3.30;;;;;;;;;;5056728;28;20051;-86
2023/07/05 04:29:40;;;;;;;3.88;2.63;;;;;;;;;;5059272;28;20029;-84
2023/07/05 04:32:06;;;;;;;4.55;2.83;;;;;;;;;;5053802;28;20381;-83
2023/07/05 04:34:32;;;;;;;4.60;2.05;;;;;;;;;;5057462;28;20025;-84
2023/07/05 04:36:58;;;;;;;4.78;3.38;;;;;;;;;;5057904;28;20029;-83
2023/07/05 04:39:23;;;;;;;4.75;3.97;;;;;;;;;;5057805;28;20099;-84
2023/07/05 04:41:48;;;;;;;4.03;2.83;;;;;;;;;;5058699;28;20125;-83
2023/07/05 04:44:14;;;;;;;5.72;3.38;;;;;;;;;;5054809;28;20389;-83
2023/07/05 04:46:39;;;;;;;4.57;2.58;;;;;;;;;;5058745;28;20100;-81
2023/07/05 04:49:05;;;;;;;4.50;2.78;;;;;;;;;;5052924;28;20029;-84
2023/07/05 04:51:31;;;;;;;6.10;3.90;;;;;;;;;;5056657;28;20029;-83
2023/07/05 04:53:57;;;;;;;4.60;2.60;;;;;;;;;;5057189;28;20025;-86
2023/07/05 04:56:22;;;;;;;4.20;3.08;;;;;;;;;;5060235;28;20081;-80
2023/07/05 04:58:51;;;;;;;4.95;2.50;;;;;;;;;;5057949;28;20056;-81
2023/07/05 05:01:18;;;;;;;5.05;3.53;;;;;;;;;;5050287;28;20025;-77
2023/07/05 05:03:43;;;;;;;5.90;3.22;;;;;;;;;;5055787;28;20036;-78
2023/07/05 05:06:09;;;;;;;3.95;2.83;;;;;;;;;;5056369;28;20032;-79
2023/07/05 05:08:35;;;;;;;5.55;3.20;;;;;;;;;;5052007;28;20104;-81
2023/07/05 05:11:02;;;;;;;2.72;2.38;;;;;;;;;;5062864;28;20029;-81
2023/07/05 05:13:29;;;;;;;3.38;2.78;;;;;;;;;;5052943;28;20029;-80
2023/07/05 05:15:56;;;;;;;4.97;3.10;;;;;;;;;;5054265;28;20045;-80
2023/07/05 05:18:23;;;;;;;4.85;2.75;;;;;;;;;;5054555;28;20040;-86
2023/07/05 05:20:48;;;;;;;3.53;2.55;;;;;;;;;;5057884;28;20540;-83
2023/07/05 05:23:14;;;;;;;5.55;3.20;;;;;;;;;;5057031;28;20025;-83
2023/07/05 05:25:44;;;;;;;6.30;3.35;;;;;;;;;;5056857;28;20032;-81
2023/07/05 05:28:10;;;;;;;7.53;3.83;;;;;;;;;;5051512;28;20102;-80
2023/07/05 05:30:36;;;;;;;4.75;3.00;;;;;;;;;;5058202;28;20037;-83
2023/07/05 05:33:05;;;;;;;4.43;3.17;;;;;;;;;;5061217;28;20033;-83
2023/07/05 05:35:32;;;;;;;4.20;2.92;;;;;;;;;;5056300;28;20115;-84
2023/07/05 05:37:58;;;;;;;6.80;3.83;;;;;;;;;;5088246;28;20456;-84
2023/07/05 05:40:23;;;;;;;5.03;3.17;;;;;;;;;;5051470;28;20119;-83
2023/07/05 05:42:49;;;;;;;6.55;2.38;;;;;;;;;;5055235;28;20107;-85
2023/07/05 05:45:14;;;;;;;2.92;2.45;;;;;;;;;;5059380;28;20082;-83
2023/07/05 05:47:40;;;;;;;9.90;4.32;;;;;;;;;;5055577;28;20029;-85
2023/07/05 05:50:06;;;;;;;4.25;2.95;;;;;;;;;;5059669;28;20078;-84
2023/07/05 05:52:33;;;;;;;4.05;2.35;;;;;;;;;;5057069;28;20082;-85
2023/07/05 05:54:59;;;;;;;4.20;2.78;;;;;;;;;;5056496;28;20476;-86
2023/07/05 05:57:24;;;;;;;3.42;2.97;;;;;;;;;;5042178;28;20032;-86
2023/07/05 05:59:50;;;;;;;4.13;3.08;;;;;;;;;;5058561;28;20469;-84
2023/07/05 06:02:16;;;;;;;4.90;2.53;;;;;;;;;;5047736;28;20484;-84
2023/07/05 06:04:41;;;;;;;4.22;2.85;;;;;;;;;;5056273;28;20397;-83
2023/07/05 06:07:07;;;;;;;5.13;3.33;;;;;;;;;;5055095;28;20031;-84
2023/07/05 06:09:58;;;;;;;3.15;2.00;;;;;;;;;;5050748;28;20017;-85
2023/07/05 06:12:24;;;;;;;4.13;3.03;;;;;;;;;;5054285;28;20048;-85
2023/07/05 06:14:49;;;;;;;5.53;3.92;;;;;;;;;;5046888;28;20083;-84
2023/07/05 06:17:15;;;;;;;3.67;2.30;;;;;;;;;;5049752;28;20043;-84
2023/07/05 06:19:40;;;;;;;4.57;3.08;;;;;;;;;;5051845;28;20145;-86
2023/07/05 06:22:06;;;;;;;3.75;2.90;;;;;;;;;;5053528;28;20104;-87
2023/07/05 06:24:32;;;;;;;5.55;3.60;;;;;;;;;;5048799;28;20091;-85
2023/07/05 06:26:58;;;;;;;7.78;2.78;;;;;;;;;;5051994;28;20110;-85
2023/07/05 06:29:23;;;;;;;4.65;3.35;;;;;;;;;;5051711;28;20049;-84
2023/07/05 06:31:49;;;;;;;4.85;3.33;;;;;;;;;;5042130;28;20057;-85
2023/07/05 06:34:14;;;;;;;3.22;2.50;;;;;;;;;;5053716;28;20774;-85
2023/07/05 06:36:40;;;;;;;3.85;2.78;;;;;;;;;;5060758;28;20105;-84
2023/07/05 06:39:06;;;;;;;5.07;3.30;;;;;;;;;;5055714;28;20468;-85
2023/07/05 06:41:31;;;;;;;3.45;2.35;;;;;;;;;;5052787;28;20025;-83
2023/07/05 06:43:57;;;;;;;2.53;2.22;;;;;;;;;;5051655;28;20029;-82
2023/07/05 06:46:22;;;;;;;3.65;1.98;;;;;;;;;;5047594;28;20048;-79
2023/07/05 06:48:50;;;;;;;2.78;2.17;;;;;;;;;;5056769;28;20021;-82
2023/07/05 06:51:16;;;;;;;3.60;2.58;;;;;;;;;;5048136;28;20488;-79
2023/07/05 06:53:41;;;;;;;3.50;2.72;;;;;;;;;;5048134;28;20106;-80
2023/07/05 06:56:09;;;;;;;2.75;2.00;;;;;;;;;;5052229;28;20071;-79
2023/07/05 06:58:36;;;;;;;3.35;2.47;;;;;;;;;;5049858;28;20947;-80
2023/07/05 07:01:02;;;;;;;3.70;2.40;;;;;;;;;;5061919;28;20024;-79
2023/07/05 07:03:27;;;;;;;3.80;2.10;;;;;;;;;;5050597;28;20025;-80
2023/07/05 07:05:57;;;;;;;3.25;2.42;;;;;;;;;;5048991;28;20473;-80
2023/07/05 07:08:29;;;;;;;3.80;2.42;;;;;;;;;;5058657;28;20025;-79
2023/07/05 07:10:54;;;;;;;2.58;1.80;;;;;;;;;;5053105;28;20035;-80
2023/07/05 07:13:20;;;;;;;3.75;2.78;;;;;;;;;;5056770;28;20024;-80
2023/07/05 07:15:49;;;;;;;4.43;2.83;;;;;;;;;;5048566;28;20080;-82
2023/07/05 07:18:14;;;;;;;3.97;3.33;;;;;;;;;;5057993;28;20024;-79
2023/07/05 07:20:39;;;;;;;4.13;2.72;;;;;;;;;;5060084;28;20100;-80
2023/07/05 07:23:05;;;;;;;4.43;3.20;;;;;;;;;;5053609;28;20028;-80
2023/07/05 07:25:30;;;;;;;3.95;2.45;;;;;;;;;;5053071;28;20037;-80
2023/07/05 07:27:56;;;;;;;3.78;2.80;;;;;;;;;;5057733;28;20021;-81
2023/07/05 07:30:21;;;;;;;3.53;2.35;;;;;;;;;;5063147;28;20103;-80
2023/07/05 07:32:47;;;;;;;2.28;2.03;;;;;;;;;;5054459;28;20020;-80
2023/07/05 07:35:13;;;;;;;4.00;2.75;;;;;;;;;;5054479;28;20033;-82
2023/07/05 07:37:39;;;;;;;2.63;1.77;;;;;;;;;;5049003;28;20498;-81
2023/07/05 07:40:06;;;;;;;2.78;1.95;;;;;;;;;;5063558;28;20119;-82
2023/07/05 07:42:32;;;;;;;5.43;3.47;;;;;;;;;;5059005;28;20529;-80
2023/07/05 07:44:57;;;;;;;2.97;2.08;;;;;;;;;;5058212;28;20025;-81
2023/07/05 07:47:23;;;;;;;5.78;3.22;;;;;;;;;;5055459;28;20020;-81
2023/07/05 07:49:49;;;;;;;4.72;3.22;;;;;;;;;;5052009;28;20032;-81
2023/07/05 07:52:15;;;;;;;3.22;2.60;;;;;;;;;;5047000;28;20473;-82
2023/07/05 07:54:42;;;;;;;3.65;2.75;;;;;;;;;;5047319;28;20079;-79
2023/07/05 07:57:08;;;;;;;3.58;2.50;;;;;;;;;;5054842;28;20162;-81
2023/07/05 07:59:35;;;;;;;2.70;2.40;;;;;;;;;;5054441;28;20115;-83
2023/07/05 08:02:02;;;;;;;5.03;3.10;;;;;;;;;;5060922;28;20042;-83
2023/07/05 08:04:28;;;;;;;2.80;2.05;;;;;;;;;;5060796;28;20033;-82
2023/07/05 08:06:53;;;;;;;3.58;3.22;;;;;;;;;;5053891;28;20032;-81
2023/07/05 08:09:22;;;;;;;3.03;2.38;;;;;;;;;;5050379;28;20392;-82
2023/07/05 08:11:47;;;;;;;3.72;2.70;;;;;;;;;;5052082;28;20028;-83
2023/07/05 08:14:13;;;;;;;4.20;2.13;;;;;;;;;;5065387;28;20029;-83
2023/07/05 08:16:40;;;;;;;3.05;2.33;;;;;;;;;;5057208;28;20484;-83
2023/07/05 08:19:06;;;;;;;3.10;2.10;;;;;;;;;;5057093;28;20133;-84
2023/07/05 08:21:31;;;;;;;2.53;1.52;;;;;;;;;;5054294;28;20521;-81
2023/07/05 08:23:57;;;;;;;2.92;2.40;;;;;;;;;;5058487;28;20519;-81
2023/07/05 08:26:23;;;;;;;2.72;1.85;;;;;;;;;;5053400;28;20045;-79
2023/07/05 08:28:48;;;;;;;2.30;2.05;;;;;;;;;;5047879;28;20106;-81
2023/07/05 08:31:14;;;;;;;3.67;2.28;;;;;;;;;;5059411;28;20025;-82
2023/07/05 08:33:40;;;;;;;3.95;2.50;;;;;;;;;;5062792;28;20029;-80
2023/07/05 08:36:12;;;;;;;5.10;2.38;;;;;;;;;;5055186;28;20029;-83
2023/07/05 08:38:39;;;;;;;2.65;2.03;;;;;;;;;;5051315;28;20025;-81
2023/07/05 08:41:27;;;;;;;3.03;2.13;;;;;;;;;;5054387;28;20522;-79
2023/07/05 08:43:53;;;;;;;3.25;2.25;;;;;;;;;;5062474;28;20024;-82
2023/07/05 08:46:19;;;;;;;2.63;1.77;;;;;;;;;;5053743;28;20496;-80
2023/07/05 08:48:47;;;;;;;8.55;1.85;;;;;;;;;;5050841;28;20555;-80
2023/07/05 08:51:15;;;;;;;2.97;1.65;;;;;;;;;;5051855;28;20044;-83
2023/07/05 08:53:53;;;;;;;2.05;1.67;;;;;;;;;;5056814;28;20115;-83
2023/07/05 08:56:24;;;;;;;2.35;1.52;;;;;;;;;;5053345;28;20078;-80
2023/07/05 08:59:01;;;;;;;3.22;2.25;;;;;;;;;;5049944;28;20108;-81
2023/07/05 09:01:34;;;;;;;3.17;2.25;;;;;;;;;;5048541;28;20035;-83
2023/07/05 09:03:59;;;;;;;2.53;1.75;;;;;;;;;;5058454;28;20104;-82
2023/07/05 09:06:39;;;;;;;3.55;1.90;;;;;;;;;;5058845;28;20112;-82
2023/07/05 09:09:48;;;;;;;3.70;2.90;;;;;;;;;;5052887;28;20023;-82
2023/07/05 09:12:57;;;;;;;2.15;1.90;;;;;;;;;;5063506;28;20036;-81
2023/07/05 09:15:32;;;;;;;2.55;1.85;;;;;;;;;;5039563;28;20095;-83
2023/07/05 09:18:22;;;;;;;3.17;1.98;;;;;;;;;;5060173;28;20537;-84
2023/07/05 09:20:55;;;;;;;4.32;2.75;;;;;;;;;;5049528;28;20028;-82
2023/07/05 09:23:37;;;;;;;3.33;2.17;;;;;;;;;;5053909;28;20280;-83
2023/07/05 09:26:45;;;;;;;2.38;1.80;;;;;;;;;;5057547;28;20020;-80
2023/07/05 09:29:43;;;;;;;2.65;1.88;;;;;;;;;;5048408;28;20055;-83
2023/07/05 09:32:12;;;;;;;3.50;2.58;;;;;;;;;;5056622;28;20032;-83
2023/07/05 09:34:47;;;;;;;3.05;2.25;;;;;;;;;;5061188;28;20540;-84
2023/07/05 09:37:20;;;;;;;6.28;2.08;;;;;;;;;;5053529;28;20025;-83
2023/07/05 09:40:11;;;;;;;3.30;2.17;;;;;;;;;;5053386;28;20025;-85
2023/07/05 09:42:49;;;;;;;5.40;2.92;;;;;;;;;;5061376;28;20624;-82
2023/07/05 09:45:16;;;;;;;3.78;2.22;;;;;;;;;;5050134;28;20025;-84
2023/07/05 09:47:45;;;;;;;3.05;2.08;;;;;;;;;;5058858;28;20082;-81
2023/07/05 09:50:16;;;;;;;3.17;2.15;;;;;;;;;;5049618;28;20025;-82
2023/07/05 09:52:44;;;;;;;3.92;2.55;;;;;;;;;;5056582;28;20036;-83
2023/07/05 09:55:13;;;;;;;3.50;2.30;;;;;;;;;;5067324;28;20028;-81
2023/07/05 09:57:38;;;;;;;4.10;2.80;;;;;;;;;;5057634;28;20028;-82
2023/07/05 10:00:29;;;;;;;3.88;2.45;;;;;;;;;;5051550;28;20367;-82
2023/07/05 10:03:02;;;;;;;4.00;2.25;;;;;;;;;;5052562;28;20028;-83
2023/07/05 10:05:29;;;;;;;3.28;2.53;;;;;;;;;;5061136;28;20370;-83
2023/07/05 10:08:02;;;;;;;3.33;2.33;;;;;;;;;;5061088;28;20039;-83
2023/07/05 10:10:34;;;;;;;3.45;2.53;;;;;;;;;;5054641;28;20033;-83
2023/07/05 10:13:26;;;;;;;4.60;2.20;;;;;;;;;;5062519;28;20028;-81
2023/07/05 10:16:01;;;;;;;3.55;1.92;;;;;;;;;;5053709;28;20492;-81
2023/07/05 10:18:34;;;;;;;2.30;1.83;;;;;;;;;;5058573;28;20045;-82
2023/07/05 10:21:04;;;;;;;2.33;1.63;;;;;;;;;;5061639;28;20143;-82
2023/07/05 10:23:30;;;;;;;;;;;;;;;;;;5058458;28;20059;-82
2023/07/05 10:26:06;;;;;;;2.10;1.58;;;;;;;;;;5051554;28;19966;-84
2023/07/05 10:28:35;;;;;;;3.22;1.70;;;;;;;;;;5057331;28;20095;-81
2023/07/05 10:31:05;;;;;;;2.40;1.70;;;;;;;;;;5055848;28;20131;-84
2023/07/05 10:33:40;;;;;;;3.53;1.83;;;;;;;;;;5049597;28;20758;-83
2023/07/05 10:36:09;;;;;;;2.50;1.80;;;;;;;;;;5058413;28;20387;-81
2023/07/05 10:38:49;;;;;;;3.00;1.85;;;;;;;;;;5053625;28;20020;-83
2023/07/05 10:41:20;;;;;;;2.70;1.75;;;;;;;;;;5056080;28;20044;-81
2023/07/05 10:44:16;;;;;;;2.72;2.20;;;;;;;;;;5056114;28;20044;-82
2023/07/05 10:46:45;;;;;;;2.60;1.90;;;;;;;;;;5053419;28;20103;-83
2023/07/05 10:49:14;;;;;;;;;;;;;;;;;;5054478;28;20032;-83
2023/07/05 10:51:44;;;;;;;2.83;2.03;;;;;;;;;;5056124;28;19921;-84
2023/07/05 10:54:41;;;;;;;3.22;2.45;;;;;;;;;;5050550;28;20041;-85
2023/07/05 10:57:40;;;;;;;3.15;2.55;;;;;;;;;;5046013;28;20029;-84
2023/07/05 11:00:28;;;;;;;1.85;1.52;;;;;;;;;;5047496;28;20064;-83
2023/07/05 11:03:10;;;;;;;3.00;1.97;;;;;;;;;;5048509;28;20043;-84
2023/07/05 11:05:48;;;;;;;2.30;1.58;;;;;;;;;;5053124;28;20274;-83
2023/07/05 11:08:27;;;;;;;2.65;1.83;;;;;;;;;;5064888;28;20029;-85
2023/07/05 11:10:55;;;;;;;2.75;2.13;;;;;;;;;;5061352;28;20037;-84
2023/07/05 11:13:21;;;;;;;2.83;2.03;;;;;;;;;;5047287;28;20033;-84
2023/07/05 11:15:47;;;;;;;2.63;1.77;;;;;;;;;;5060425;28;20114;-84
2023/07/05 11:18:15;;;;;;;2.60;1.95;;;;;;;;;;5065614;28;20039;-84
2023/07/05 11:20:41;;;;;;;4.70;2.22;;;;;;;;;;5063586;28;20025;-83
2023/07/05 11:23:11;;;;;;;1.95;1.45;;;;;;;;;;5055032;28;20071;-85
2023/07/05 11:25:52;;;;;;;2.35;1.65;;;;;;;;;;5060383;28;20047;-85
2023/07/05 11:28:40;;;;;;;2.42;1.58;;;;;;;;;;5063975;28;20028;-85
2023/07/05 11:31:30;;;;;;;2.53;1.70;;;;;;;;;;5064257;28;20028;-84
2023/07/05 11:34:20;;;;;;;2.10;1.55;;;;;;;;;;5057799;28;20120;-87
2023/07/05 11:36:47;;;;;;;4.35;2.70;;;;;;;;;;5066052;28;20363;-84
2023/07/05 11:39:35;;;;;;;2.10;1.63;;;;;;;;;;5054028;28;20029;-85
2023/07/05 11:42:15;;;;;;;2.22;1.42;;;;;;;;;;5054841;28;20040;-86
2023/07/05 11:44:48;;;;;;;2.83;1.77;;;;;;;;;;5060630;28;20582;-87
2023/07/05 11:47:22;;;;;;;2.97;1.90;;;;;;;;;;5057249;28;20488;-89
2023/07/05 11:50:07;;;;;;;2.50;1.42;;;;;;;;;;5052341;28;20029;-85
2023/07/05 11:52:42;;;;;;;1.30;1.20;;;;;;;;;;5047470;28;20037;-86
2023/07/05 11:55:21;;;;;;;1.95;1.52;;;;;;;;;;5056802;28;20037;-85
2023/07/05 11:58:08;;;;;;;3.35;2.10;;;;;;;;;;5052748;28;20028;-84
2023/07/05 12:00:54;;;;;;;2.05;1.55;;;;;;;;;;5059282;28;20506;-83
2023/07/05 12:03:22;;;;;;;1.98;1.73;;;;;;;;;;5054921;28;20035;-83
2023/07/05 12:06:25;;;;;;;1.50;1.02;;;;;;;;;;5057633;28;20096;-83
2023/07/05 12:08:57;;;;;;;1.33;1.10;;;;;;;;;;5047637;28;20032;-84
2023/07/05 12:11:33;;;;;;;1.98;1.23;;;;;;;;;;5056091;28;20033;-82
2023/07/05 12:14:04;;;;;;;1.40;0.75;;;;;;;;;;5060991;28;20082;-83
2023/07/05 12:16:30;;;;;;;2.13;1.40;;;;;;;;;;5059339;28;20053;-84
2023/07/05 12:18:56;;;;;;;3.08;1.52;;;;;;;;;;5061273;28;20052;-85
2023/07/05 12:21:22;;;;;;;1.17;0.88;;;;;;;;;;5059090;28;20075;-86
2023/07/05 12:23:54;;;;;;;1.70;1.10;;;;;;;;;;5062852;28;20373;-85
2023/07/05 12:26:31;;;;;;;2.30;1.23;;;;;;;;;;5059175;28;20029;-84
2023/07/05 12:29:00;;;;;;;1.65;1.15;;;;;;;;;;5058895;28;20059;-86
2023/07/05 12:31:26;;;;;;;2.30;1.60;;;;;;;;;;5060536;28;20476;-87
2023/07/05 12:33:56;;;;;;;3.70;1.48;;;;;;;;;;5062182;28;20029;-84
2023/07/05 12:36:22;;;;;;;1.85;1.40;;;;;;;;;;5065187;28;20559;-83
2023/07/05 12:38:50;;;;;;;2.58;1.80;;;;;;;;;;5062927;28;20067;-83
2023/07/05 12:41:24;;;;;;;2.13;1.55;;;;;;;;;;5053308;28;20060;-85
2023/07/05 12:43:59;;;;;;;2.33;1.65;;;;;;;;;;5056510;28;20033;-84
2023/07/05 12:46:26;;;;;;;2.38;1.73;;;;;;;;;;5059801;28;20070;-86
2023/07/05 12:48:52;;;;;;;2.40;1.63;;;;;;;;;;5051459;28;20020;-86
2023/07/05 12:51:21;;;;;;;2.70;1.70;;;;;;;;;;5060611;28;20234;-86
2023/07/05 12:53:52;;;;;;;3.58;1.58;;;;;;;;;;5061415;28;20535;-84
2023/07/05 12:56:22;;;;;;;2.92;2.33;;;;;;;;;;5063319;28;20025;-84
2023/07/05 12:58:57;;;;;;;2.80;2.00;;;;;;;;;;5066835;28;20111;-84
2023/07/05 13:01:28;;;;;;;1.60;1.27;;;;;;;;;;5056083;28;20392;-83
2023/07/05 13:03:54;;;;;;;3.22;1.90;;;;;;;;;;5056864;28;20499;-84
2023/07/05 13:06:19;;;;;;;1.60;1.50;;;;;;;;;;5060622;28;20024;-84
2023/07/05 13:08:46;;;;;;;2.75;2.10;;;;;;;;;;5056094;28;20036;-84
2023/07/05 13:11:27;;;;;;;1.95;1.45;;;;;;;;;;5056159;28;20048;-84
2023/07/05 13:14:01;;;;;;;3.15;2.10;;;;;;;;;;5048554;28;20380;-83
2023/07/05 13:16:30;;;;;;;2.30;1.85;;;;;;;;;;5063275;28;20040;-85
2023/07/05 13:19:09;;;;;;;2.15;1.88;;;;;;;;;;5060671;28;20083;-86
2023/07/05 13:21:49;;;;;;;2.97;2.10;;;;;;;;;;5055863;28;20024;-84
2023/07/05 13:24:35;;;;;;;3.88;2.28;;;;;;;;;;5059277;28;20355;-83
2023/07/05 13:27:02;;;;;;;3.08;2.17;;;;;;;;;;5061112;28;20107;-88
2023/07/05 13:29:37;;;;;;;2.83;2.05;;;;;;;;;;5052108;28;20053;-83
2023/07/05 13:32:03;;;;;;;2.63;1.95;;;;;;;;;;5057869;28;20032;-84
2023/07/05 13:34:29;;;;;;;2.83;2.00;;;;;;;;;;5064667;28;20032;-82
2023/07/05 13:37:00;;;;;;;3.33;2.35;;;;;;;;;;5056976;28;20036;-84
2023/07/05 13:39:26;;;;;;;3.33;1.77;;;;;;;;;;5057001;28;20036;-85
2023/07/05 13:41:53;;;;;;;3.22;2.08;;;;;;;;;;5062269;28;20480;-88
2023/07/05 13:47:16;;;;;;;2.00;1.45;;;;;;;;;;5117023;27;21112;-86
2023/07/05 13:49:43;;;;;;;5.38;3.15;;;;;;;;;;5100540;28;20475;-82
2023/07/05 13:52:14;;;;;;;3.70;2.22;;;;;;;;;;5081105;28;20031;-82
2023/07/05 13:54:40;;;;;;;2.40;1.77;;;;;;;;;;5101193;28;20024;-82
2023/07/05 13:57:12;;;;;;;2.47;1.77;;;;;;;;;;5100101;28;20038;-82
2023/07/05 13:59:38;;;;;;;3.00;2.00;;;;;;;;;;5103132;28;20098;-84
2023/07/05 14:02:24;;;;;;;2.47;1.65;;;;;;;;;;5074830;28;20132;-83
2023/07/05 14:04:50;;;;;;;2.88;2.30;;;;;;;;;;5099203;28;20089;-83
2023/07/05 14:07:15;;;;;;;4.63;2.55;;;;;;;;;;5104377;28;20118;-83
2023/07/05 14:09:40;;;;;;;3.47;1.67;;;;;;;;;;5093589;28;20025;-84
2023/07/05 14:12:17;;;;;;;2.33;1.40;;;;;;;;;;5098532;28;20023;-83
2023/07/05 14:14:43;;;;;;;3.45;1.75;;;;;;;;;;5094800;28;20063;-83
2023/07/05 14:17:15;;;;;;;2.83;1.75;;;;;;;;;;5101326;28;20052;-83
2023/07/05 14:19:41;;;;;;;3.63;1.85;;;;;;;;;;5100581;28;20084;-80
2023/07/05 14:22:27;;;;;;;2.13;1.92;;;;;;;;;;5086569;28;20360;-82
2023/07/05 14:24:53;;;;;;;3.45;1.17;;;;;;;;;;5098890;28;20037;-80
2023/07/05 14:27:23;;;;;;;2.78;1.88;;;;;;;;;;5082950;28;20051;-78
2023/07/05 14:29:52;;;;;;;2.40;1.65;;;;;;;;;;5081795;28;20192;-81
2023/07/05 14:32:18;;;;;;;2.67;1.85;;;;;;;;;;5082266;28;20433;-81
2023/07/05 14:34:43;;;;;;;1.70;0.95;;;;;;;;;;5099526;28;20032;-82
2023/07/05 14:37:10;;;;;;;3.60;1.98;;;;;;;;;;5097384;28;20020;-84
2023/07/05 14:39:35;;;;;;;2.45;1.63;;;;;;;;;;5105454;28;20027;-83
2023/07/05 14:42:02;;;;;;;3.60;1.80;;;;;;;;;;5083699;28;20414;-84
2023/07/05 14:44:28;;;;;;;2.25;1.80;;;;;;;;;;5098959;28;20391;-83
2023/07/05 14:46:53;;;;;;;2.35;1.60;;;;;;;;;;5097433;28;20052;-84
2023/07/05 14:49:19;;;;;;;2.83;1.77;;;;;;;;;;5094742;28;20025;-84
2023/07/05 14:51:45;;;;;;;1.88;1.67;;;;;;;;;;5102033;28;20132;-83
2023/07/05 14:54:11;;;;;;;3.65;2.33;;;;;;;;;;5076093;28;20025;-83
2023/07/05 14:56:36;;;;;;;3.55;2.22;;;;;;;;;;5082007;28;20069;-82
2023/07/05 14:59:03;;;;;;;2.15;1.35;;;;;;;;;;5085512;28;20024;-82
2023/07/05 15:01:30;;;;;;;1.63;1.15;;;;;;;;;;5087825;28;20416;-87
2023/07/05 15:03:55;;;;;;;2.05;1.58;;;;;;;;;;5087004;28;20103;-83